Time;durP1;ratioP1;P1;durP2;ratioP2;P2;SDS_P1;SDS_P2;PMS_P1;PMS_P2;Temp;Humidity;BMP_temperature;BMP_pressure;BME280_temperature;BME280_humidity;BME280_pressure;Samples;Min_cycle;Max_cycle;Signal;HPM_P1;HPM_P2
2022/10/03 00:00:36;;;;;;;;;;;;;;;17.00;74.89;102201.50;1021031;29;647;-69
2022/10/03 00:01:26;;;;;;;;;;;;;;;17.02;75.28;102211.31;1021041;29;647;-69
2022/10/03 00:02:16;;;;;;;;;;;;;;;17.02;74.87;102216.69;1020913;29;628;-69
2022/10/03 00:03:07;;;;;;;;;;;;;;;17.01;75.02;102213.13;1020951;29;631;-69
2022/10/03 00:03:57;;;;;;;;;;;;;;;17.00;74.79;102212.28;1020774;29;879;-69
2022/10/03 00:04:48;;;;;;;;;;;;;;;16.99;74.83;102210.56;1021238;29;670;-69
2022/10/03 00:05:38;;;;;;;;;;;;;;;16.99;74.94;102207.00;1021246;29;601;-69
2022/10/03 00:06:29;;;;;;;;;;;;;;;16.98;74.64;102213.34;1020963;29;742;-69
2022/10/03 00:07:19;;;;;;;;;;;;;;;16.98;75.46;102214.22;1020928;29;710;-68
2022/10/03 00:08:10;;;;;;;;;;;;;;;16.98;75.31;102222.28;1021301;29;768;-68
2022/10/03 00:09:00;;;;;;;;;;;;;;;16.96;74.93;102224.22;1021214;29;866;-68
2022/10/03 00:09:51;;;;;;;;;;;;;;;16.96;74.65;102216.16;1021140;29;674;-69
2022/10/03 00:10:41;;;;;;;;;;;;;;;16.97;75.18;102220.56;1020745;29;619;-69
2022/10/03 00:11:32;;;;;;;;;;;;;;;16.97;74.89;102228.66;1021224;29;622;-69
2022/10/03 00:12:22;;;;;;;;;;;;;;;16.97;75.12;102222.41;1021172;29;651;-68
2022/10/03 00:13:13;;;;;;;;;;;;;;;16.98;74.55;102227.69;1020963;29;706;-68
2022/10/03 00:14:03;;;;;;;;;;;;;;;16.99;74.81;102220.47;1021053;29;670;-68
2022/10/03 00:14:53;;;;;;;;;;;;;;;16.99;74.31;102223.16;1020925;29;651;-68
2022/10/03 00:15:44;;;;;;;;;;;;;;;17.00;74.89;102223.06;1020963;29;611;-68
2022/10/03 00:16:35;;;;;;;;;;;;;;;16.97;74.48;102225.94;1021081;29;639;-68
2022/10/03 00:17:25;;;;;;;;;;;;;;;16.97;75.05;102219.69;1021227;29;638;-69
2022/10/03 00:18:17;;;;;;;;;;;;;;;16.97;75.45;102225.94;1021279;29;701;-69
2022/10/03 00:19:08;;;;;;;;;;;;;;;16.95;74.47;102227.88;1021290;29;709;-68
2022/10/03 00:19:58;;;;;;;;;;;;;;;16.94;75.22;102222.59;1021899;29;654;-68
2022/10/03 00:20:49;;;;;;;;;;;;;;;16.95;75.08;102229.72;1021475;29;622;-70
2022/10/03 00:21:39;;;;;;;;;;;;;;;16.96;75.25;102232.31;1021284;29;710;-70
2022/10/03 00:22:30;;;;;;;;;;;;;;;16.95;75.31;102229.72;1021070;29;631;-69
2022/10/03 00:23:20;;;;;;;;;;;;;;;16.94;74.41;102236.94;1022257;29;669;-69
2022/10/03 00:24:11;;;;;;;;;;;;;;;16.94;75.08;102234.25;1021043;29;684;-70
2022/10/03 00:25:01;;;;;;;;;;;;;;;16.95;74.82;102233.28;1021065;29;639;-70
2022/10/03 00:25:52;;;;;;;;;;;;;;;16.96;75.10;102236.84;1020810;29;623;-69
2022/10/03 00:26:42;;;;;;;;;;;;;;;16.94;74.77;102236.94;1022079;29;646;-72
2022/10/03 00:27:33;;;;;;;;;;;;;;;16.92;74.61;102236.16;1021115;29;654;-70
2022/10/03 00:28:24;;;;;;;;;;;;;;;16.93;74.58;102237.91;1022076;29;642;-69
2022/10/03 00:29:14;;;;;;;;;;;;;;;16.92;74.77;102244.25;1020952;29;701;-70
2022/10/03 00:30:04;;;;;;;;;;;;;;;16.91;74.66;102237.13;1020878;29;675;-69
2022/10/03 00:30:55;;;;;;;;;;;;;;;16.91;75.17;102237.13;1020738;29;698;-69
2022/10/03 00:31:45;;;;;;;;;;;;;;;16.91;74.31;102242.53;1020746;29;686;-69
2022/10/03 00:32:37;;;;;;;;;;;;;;;16.89;74.86;102233.69;1020983;29;651;-69
2022/10/03 00:33:27;;;;;;;;;;;;;;;16.93;75.08;102240.59;1021977;29;732;-70
2022/10/03 00:34:18;;;;;;;;;;;;;;;16.93;74.61;102239.72;1020883;29;946;-69
2022/10/03 00:35:08;;;;;;;;;;;;;;;16.92;74.44;102244.25;1022127;29;656;-69
2022/10/03 00:35:59;;;;;;;;;;;;;;;16.92;74.36;102241.56;1020898;29;572;-69
2022/10/03 00:36:49;;;;;;;;;;;;;;;16.92;74.06;102249.63;1020996;29;682;-69
2022/10/03 00:37:40;;;;;;;;;;;;;;;16.92;75.00;102241.56;1020668;29;1212;-69
2022/10/03 00:38:30;;;;;;;;;;;;;;;16.91;74.62;102241.66;1020997;29;1915;-69
2022/10/03 00:39:21;;;;;;;;;;;;;;;16.90;74.01;102238.09;1020877;29;659;-69
2022/10/03 00:40:11;;;;;;;;;;;;;;;16.88;74.61;102236.47;1020945;29;749;-69
2022/10/03 00:41:01;;;;;;;;;;;;;;;16.85;74.56;102242.94;1020852;29;726;-69
2022/10/03 00:41:52;;;;;;;;;;;;;;;16.87;74.82;102245.53;1020878;29;896;-69
2022/10/03 00:42:43;;;;;;;;;;;;;;;16.88;74.69;102239.19;1021940;29;674;-69
2022/10/03 00:43:33;;;;;;;;;;;;;;;16.87;74.71;102234.75;1020918;29;671;-70
2022/10/03 00:44:24;;;;;;;;;;;;;;;16.86;74.87;102238.41;1020717;29;1199;-69
2022/10/03 00:45:14;;;;;;;;;;;;;;;16.88;74.67;102234.66;1021415;29;638;-69
2022/10/03 00:46:05;;;;;;;;;;;;;;;16.87;74.60;102237.44;1021006;29;646;-69
2022/10/03 00:46:55;;;;;;;;;;;;;;;16.86;74.78;102238.41;1021365;29;625;-69
2022/10/03 00:47:46;;;;;;;;;;;;;;;16.86;74.36;102239.28;1021433;29;642;-70
2022/10/03 00:48:36;;;;;;;;;;;;;;;16.87;74.45;102240.16;1021485;29;661;-69
2022/10/03 00:49:26;;;;;;;;;;;;;;;16.86;74.54;102243.81;1021382;29;766;-70
2022/10/03 00:50:17;;;;;;;;;;;;;;;16.83;74.84;102242.22;1021453;29;663;-70
2022/10/03 00:51:07;;;;;;;;;;;;;;;16.85;74.33;102237.56;1021454;29;694;-70
2022/10/03 00:51:58;;;;;;;;;;;;;;;16.86;74.41;102249.19;1016943;29;619;-70
2022/10/03 00:52:48;;;;;;;;;;;;;;;16.86;74.19;102247.34;1019641;29;664;-70
2022/10/03 00:53:39;;;;;;;;;;;;;;;16.87;74.47;102251.78;1021114;29;635;-69
2022/10/03 00:54:29;;;;;;;;;;;;;;;16.88;74.62;102242.72;1017463;29;630;-70
2022/10/03 00:55:20;;;;;;;;;;;;;;;16.87;74.24;102249.09;1017958;29;626;-71
2022/10/03 00:56:10;;;;;;;;;;;;;;;16.85;74.66;102248.31;1017442;29;637;-70
2022/10/03 00:57:01;;;;;;;;;;;;;;;16.88;75.02;102264.28;1017997;29;619;-69
2022/10/03 00:57:51;;;;;;;;;;;;;;;16.86;74.13;102263.50;1017529;29;706;-70
2022/10/03 00:58:42;;;;;;;;;;;;;;;16.86;74.77;102263.50;1017984;29;1949;-70
2022/10/03 00:59:32;;;;;;;;;;;;;;;16.86;74.63;102268.91;1017968;29;674;-70
2022/10/03 01:00:25;;;;;;;;;;;;;;;16.85;74.49;102266.31;1017007;29;592;-70
2022/10/03 01:01:16;;;;;;;;;;;;;;;16.84;74.56;102270.84;1017462;29;631;-70
2022/10/03 01:02:06;;;;;;;;;;;;;;;16.86;74.46;102268.03;1017495;29;725;-70
2022/10/03 01:02:57;;;;;;;;;;;;;;;16.86;74.08;102266.22;1017355;29;631;-70
2022/10/03 01:03:47;;;;;;;;;;;;;;;16.83;73.73;102269.13;1017972;29;674;-70
2022/10/03 01:04:38;;;;;;;;;;;;;;;16.83;74.02;102266.44;1016796;29;618;-70
2022/10/03 01:05:28;;;;;;;;;;;;;;;16.83;73.86;102273.66;1017646;29;662;-70
2022/10/03 01:06:18;;;;;;;;;;;;;;;16.82;74.81;102267.41;1016558;29;591;-70
2022/10/03 01:07:09;;;;;;;;;;;;;;;16.83;74.22;102268.28;1021205;29;615;-70
2022/10/03 01:07:59;;;;;;;;;;;;;;;16.84;74.13;102276.22;1021014;29;654;-69
2022/10/03 01:08:50;;;;;;;;;;;;;;;16.85;74.14;102282.47;1017537;29;637;-70
2022/10/03 01:09:40;;;;;;;;;;;;;;;16.85;74.44;102275.25;1017389;29;640;-69
2022/10/03 01:10:31;;;;;;;;;;;;;;;16.84;74.34;102280.78;1017980;29;640;-70
2022/10/03 01:11:21;;;;;;;;;;;;;;;16.83;74.13;102285.28;1017938;29;662;-70
2022/10/03 01:12:12;;;;;;;;;;;;;;;16.83;73.96;102285.28;1017617;29;706;-70
2022/10/03 01:13:02;;;;;;;;;;;;;;;16.81;73.88;102287.22;1017594;29;738;-70
2022/10/03 01:13:53;;;;;;;;;;;;;;;16.83;73.79;102282.59;1017430;29;765;-70
2022/10/03 01:14:43;;;;;;;;;;;;;;;16.84;74.46;102291.53;1017394;29;667;-70
2022/10/03 01:15:34;;;;;;;;;;;;;;;16.80;74.53;102288.19;1017373;29;631;-70
2022/10/03 01:16:26;;;;;;;;;;;;;;;16.81;74.55;102291.75;1017315;29;683;-70
2022/10/03 01:17:16;;;;;;;;;;;;;;;16.83;74.04;102287.13;1017874;29;647;-70
2022/10/03 01:18:09;;;;;;;;;;;;;;;16.80;73.81;102285.50;1017897;29;702;-70
2022/10/03 01:19:01;;;;;;;;;;;;;;;16.81;74.58;102284.53;1017327;29;658;-70
2022/10/03 01:19:51;;;;;;;;;;;;;;;16.81;73.73;102275.59;1017343;29;627;-70
2022/10/03 01:20:42;;;;;;;;;;;;;;;16.80;73.83;102282.81;1017905;29;658;-70
2022/10/03 01:21:32;;;;;;;;;;;;;;;16.82;74.10;102282.69;1017380;29;635;-70
2022/10/03 01:22:23;;;;;;;;;;;;;;;16.84;73.99;102276.22;1017857;29;646;-70
2022/10/03 01:23:13;;;;;;;;;;;;;;;16.81;73.68;102278.28;1017376;29;672;-70
2022/10/03 01:24:03;;;;;;;;;;;;;;;16.78;74.65;102284.72;1017303;29;781;-70
2022/10/03 01:24:54;;;;;;;;;;;;;;;16.79;74.19;102277.53;1017919;29;639;-70
2022/10/03 01:25:44;;;;;;;;;;;;;;;16.78;73.91;102282.03;1017331;29;718;-69
2022/10/03 01:26:35;;;;;;;;;;;;;;;16.79;74.08;102282.91;1017835;29;710;-70
2022/10/03 01:27:25;;;;;;;;;;;;;;;16.76;74.20;102280.41;1017336;29;745;-70
2022/10/03 01:30:33;;;;;;;;;;;;;;;16.79;74.58;102270.31;1017256;29;616;-70
2022/10/03 01:31:24;;;;;;;;;;;;;;;16.78;73.65;102271.28;1017274;29;695;-70
2022/10/03 01:32:14;;;;;;;;;;;;;;;16.76;74.24;102267.81;1017349;29;703;-70
2022/10/03 01:33:05;;;;;;;;;;;;;;;16.78;74.33;102273.97;1017915;29;695;-70
2022/10/03 01:33:55;;;;;;;;;;;;;;;16.79;73.84;102280.22;1017874;29;734;-70
2022/10/03 01:34:46;;;;;;;;;;;;;;;16.79;73.47;102280.22;1017265;29;651;-70
2022/10/03 01:35:37;;;;;;;;;;;;;;;16.80;73.99;102276.56;1017311;29;659;-70
2022/10/03 01:36:27;;;;;;;;;;;;;;;16.80;73.48;102276.56;1017382;29;686;-69
2022/10/03 01:37:21;;;;;;;;;;;;;;;16.79;73.83;102278.38;1017264;29;722;-69
2022/10/03 01:38:11;;;;;;;;;;;;;;;16.81;73.97;102284.53;1017345;29;721;-69
2022/10/03 01:39:02;;;;;;;;;;;;;;;16.80;73.90;102276.56;1017246;29;635;-69
2022/10/03 01:39:52;;;;;;;;;;;;;;;16.79;73.96;102278.38;1017358;29;588;-69
2022/10/03 01:40:43;;;;;;;;;;;;;;;16.82;74.16;102280.88;1017246;29;635;-69
2022/10/03 01:41:33;;;;;;;;;;;;;;;16.79;74.24;102282.91;1017316;29;678;-69
2022/10/03 01:42:24;;;;;;;;;;;;;;;16.80;73.63;102274.72;1017274;29;623;-69
2022/10/03 01:43:14;;;;;;;;;;;;;;;16.80;73.44;102274.72;1017782;29;694;-69
2022/10/03 01:44:05;;;;;;;;;;;;;;;16.78;73.59;102278.47;1016829;29;604;-69
2022/10/03 01:44:55;;;;;;;;;;;;;;;16.76;74.06;102280.41;1017309;29;710;-69
2022/10/03 01:45:46;;;;;;;;;;;;;;;16.79;73.77;102283.78;1016743;29;737;-69
2022/10/03 01:46:37;;;;;;;;;;;;;;;16.77;73.88;102283.00;1016840;29;667;-69
2022/10/03 01:47:27;;;;;;;;;;;;;;;16.78;73.99;102281.19;1016740;29;667;-69
2022/10/03 01:48:18;;;;;;;;;;;;;;;16.76;73.80;102278.59;1016868;29;721;-69
2022/10/03 01:49:08;;;;;;;;;;;;;;;16.79;73.55;102286.47;1016772;29;706;-69
2022/10/03 01:49:58;;;;;;;;;;;;;;;16.75;73.71;102281.38;1017303;29;670;-69
2022/10/03 01:50:49;;;;;;;;;;;;;;;16.72;73.83;102287.84;1016808;29;691;-69
2022/10/03 01:51:39;;;;;;;;;;;;;;;16.75;73.75;102282.25;1017170;29;702;-69
2022/10/03 01:52:30;;;;;;;;;;;;;;;16.78;73.47;102276.66;1016689;29;703;-70
2022/10/03 01:53:20;;;;;;;;;;;;;;;16.76;73.85;102286.66;1016680;29;679;-69
2022/10/03 01:54:13;;;;;;;;;;;;;;;16.79;73.34;102288.28;1017267;29;635;-69
2022/10/03 01:55:04;;;;;;;;;;;;;;;16.78;73.86;102287.44;1019504;29;1416;-69
2022/10/03 01:55:54;;;;;;;;;;;;;;;16.77;73.99;102291.09;1021228;29;706;-69
2022/10/03 01:56:45;;;;;;;;;;;;;;;16.74;73.54;102288.59;1021179;29;632;-69
2022/10/03 01:57:35;;;;;;;;;;;;;;;16.78;73.85;102287.44;1020729;29;725;-69
2022/10/03 01:58:25;;;;;;;;;;;;;;;16.77;73.69;102288.38;1020606;29;1895;-69
2022/10/03 01:59:19;;;;;;;;;;;;;;;16.77;73.88;102280.31;1021138;29;683;-69
2022/10/03 02:00:09;;;;;;;;;;;;;;;16.79;74.15;102286.47;1021161;29;643;-69
2022/10/03 02:01:00;;;;;;;;;;;;;;;16.76;73.72;102273.19;1021091;29;619;-69
2022/10/03 02:01:50;;;;;;;;;;;;;;;16.75;73.73;102276.00;1021178;29;663;-69
2022/10/03 02:02:41;;;;;;;;;;;;;;;16.76;73.37;102281.28;1020544;29;642;-69
2022/10/03 02:03:31;;;;;;;;;;;;;;;16.75;74.00;102274.16;1021304;29;775;-69
2022/10/03 02:04:21;;;;;;;;;;;;;;;16.75;74.03;102281.38;1021074;29;651;-69
2022/10/03 02:05:12;;;;;;;;;;;;;;;16.74;74.01;102277.81;1021130;29;674;-69
2022/10/03 02:06:02;;;;;;;;;;;;;;;16.76;73.54;102280.41;1020997;29;663;-69
2022/10/03 02:06:53;;;;;;;;;;;;;;;16.74;74.31;102283.22;1020946;29;760;-69
2022/10/03 02:07:43;;;;;;;;;;;;;;;16.74;74.29;102291.28;1021100;29;682;-69
2022/10/03 02:08:34;;;;;;;;;;;;;;;16.76;73.80;102285.81;1021083;29;599;-69
2022/10/03 02:09:24;;;;;;;;;;;;;;;16.77;73.92;102291.09;1021059;29;661;-69
2022/10/03 02:10:15;;;;;;;;;;;;;;;16.75;73.59;102293.00;1021069;29;670;-69
2022/10/03 02:11:09;;;;;;;;;;;;;;;16.75;73.54;102282.25;1021049;29;634;-69
2022/10/03 02:11:59;;;;;;;;;;;;;;;16.75;74.04;102286.75;1020445;29;702;-69
2022/10/03 02:12:50;;;;;;;;;;;;;;;16.78;73.59;102281.19;1020410;29;636;-69
2022/10/03 02:13:40;;;;;;;;;;;;;;;16.78;73.26;102287.44;1020454;29;595;-69
2022/10/03 02:14:30;;;;;;;;;;;;;;;16.75;73.64;102282.25;1020940;29;702;-69
2022/10/03 02:15:21;;;;;;;;;;;;;;;16.73;73.96;102283.31;1020420;29;655;-69
2022/10/03 02:16:11;;;;;;;;;;;;;;;16.75;73.26;102294.84;1020978;29;725;-69
2022/10/03 02:17:02;;;;;;;;;;;;;;;16.73;73.88;102284.19;1020409;29;623;-69
2022/10/03 02:17:53;;;;;;;;;;;;;;;16.73;73.52;102294.06;1020987;29;631;-69
2022/10/03 02:18:44;;;;;;;;;;;;;;;16.72;73.83;102293.22;1019354;29;1940;-69
2022/10/03 02:19:35;;;;;;;;;;;;;;;16.74;73.23;102285.91;1021013;29;635;-69
2022/10/03 02:20:26;;;;;;;;;;;;;;;16.73;73.80;102289.56;1020997;29;623;-68
2022/10/03 02:21:16;;;;;;;;;;;;;;;16.74;73.23;102285.03;1021076;29;670;-71
2022/10/03 02:22:07;;;;;;;;;;;;;;;16.75;73.53;102290.31;1020980;29;678;-70
2022/10/03 02:22:57;;;;;;;;;;;;;;;16.76;73.75;102288.50;1021031;29;737;-71
2022/10/03 02:23:48;;;;;;;;;;;;;;;16.76;73.25;102296.56;1020972;29;699;-71
2022/10/03 02:24:38;;;;;;;;;;;;;;;16.74;73.37;102285.91;1020935;29;635;-70
2022/10/03 02:25:30;;;;;;;;;;;;;;;16.74;73.72;102291.28;1020945;29;713;-70
2022/10/03 02:26:20;;;;;;;;;;;;;;;16.74;73.34;102291.28;1020734;29;1146;-69
2022/10/03 02:27:10;;;;;;;;;;;;;;;16.70;74.09;102291.59;1017117;29;747;-69
2022/10/03 02:28:01;;;;;;;;;;;;;;;16.68;73.78;102291.69;1017631;29;1205;-69
2022/10/03 02:28:54;;;;;;;;;;;;;;;16.73;73.28;102294.06;1021530;29;670;-69
2022/10/03 02:29:44;;;;;;;;;;;;;;;16.73;73.70;102291.38;1021515;29;621;-70
2022/10/03 02:30:37;;;;;;;;;;;;;;;16.72;73.40;102287.84;1021018;29;611;-69
2022/10/03 02:31:29;;;;;;;;;;;;;;;16.71;73.06;102291.50;1021414;29;630;-70
2022/10/03 02:32:19;;;;;;;;;;;;;;;16.70;73.37;102284.38;1020349;29;677;-69
2022/10/03 02:33:09;;;;;;;;;;;;;;;16.71;73.34;102280.72;1021490;29;710;-69
2022/10/03 02:34:00;;;;;;;;;;;;;;;16.70;73.07;102283.50;1021679;29;643;-69
2022/10/03 02:34:52;;;;;;;;;;;;;;;16.70;73.56;102284.38;1021790;29;666;-70
2022/10/03 02:35:42;;;;;;;;;;;;;;;16.69;73.58;102287.16;1021600;29;682;-71
2022/10/03 02:36:32;;;;;;;;;;;;;;;16.70;73.56;102289.75;1021583;29;649;-70
2022/10/03 02:37:23;;;;;;;;;;;;;;;16.68;73.65;102286.31;1021493;29;623;-70
2022/10/03 02:38:13;;;;;;;;;;;;;;;16.70;72.97;102286.19;1021644;29;639;-69
2022/10/03 02:39:04;;;;;;;;;;;;;;;16.66;73.31;102285.53;1021766;29;697;-70
2022/10/03 02:39:54;;;;;;;;;;;;;;;16.68;73.25;102286.31;1021493;29;758;-69
2022/10/03 02:40:47;;;;;;;;;;;;;;;16.66;73.76;102288.22;1021465;29;623;-69
2022/10/03 02:41:38;;;;;;;;;;;;;;;16.67;72.89;102284.56;1021321;29;745;-69
2022/10/03 02:42:28;;;;;;;;;;;;;;;16.65;73.09;102282.03;1021462;29;626;-69
2022/10/03 02:43:19;;;;;;;;;;;;;;;16.66;72.87;102285.53;1019934;29;674;-69
2022/10/03 02:44:09;;;;;;;;;;;;;;;16.65;73.66;102291.94;1021505;29;732;-69
2022/10/03 02:44:59;;;;;;;;;;;;;;;16.63;73.57;102281.25;1020927;29;726;-69
2022/10/03 02:45:50;;;;;;;;;;;;;;;16.65;73.53;102283.84;1020268;29;704;-69
2022/10/03 02:46:41;;;;;;;;;;;;;;;16.66;73.61;102282.84;1020439;29;662;-69
2022/10/03 02:47:31;;;;;;;;;;;;;;;16.63;72.82;102289.34;1019948;29;779;-69
2022/10/03 02:48:22;;;;;;;;;;;;;;;16.62;73.03;102297.47;1019725;29;560;-69
2022/10/03 02:49:13;;;;;;;;;;;;;;;16.62;73.57;102292.97;1020330;29;643;-69
2022/10/03 02:50:03;;;;;;;;;;;;;;;16.62;73.45;102292.09;1020371;29;636;-69
2022/10/03 02:50:53;;;;;;;;;;;;;;;16.62;73.03;102289.41;1020438;29;644;-69
2022/10/03 02:51:44;;;;;;;;;;;;;;;16.59;73.30;102293.16;1020267;29;718;-69
2022/10/03 02:52:35;;;;;;;;;;;;;;;16.64;73.52;102292.88;1020515;29;634;-70
2022/10/03 02:53:25;;;;;;;;;;;;;;;16.63;73.57;102289.34;1020352;29;595;-69
2022/10/03 02:54:15;;;;;;;;;;;;;;;16.61;73.16;102296.59;1020368;29;643;-69
2022/10/03 02:55:06;;;;;;;;;;;;;;;16.64;72.97;102290.19;1020307;29;1439;-69
2022/10/03 02:55:56;;;;;;;;;;;;;;;16.61;73.17;102293.06;1020906;29;638;-69
2022/10/03 02:56:48;;;;;;;;;;;;;;;16.62;73.63;102294.78;1020405;29;604;-69
2022/10/03 02:57:39;;;;;;;;;;;;;;;16.63;73.57;102299.22;1020305;29;725;-69
2022/10/03 02:58:29;;;;;;;;;;;;;;;16.64;73.10;102300.97;1020763;29;1891;-69
2022/10/03 02:59:19;;;;;;;;;;;;;;;16.63;73.43;102297.41;1020919;29;631;-69
2022/10/03 03:00:10;;;;;;;;;;;;;;;16.61;73.39;102296.59;1020950;29;658;-69
2022/10/03 03:01:01;;;;;;;;;;;;;;;16.61;73.35;102299.31;1020895;29;638;-69
2022/10/03 03:01:51;;;;;;;;;;;;;;;16.61;73.38;102299.31;1020899;29;654;-69
2022/10/03 03:02:42;;;;;;;;;;;;;;;16.60;73.59;102299.41;1020172;29;656;-69
2022/10/03 03:03:32;;;;;;;;;;;;;;;16.62;72.59;102300.16;1020882;29;567;-69
2022/10/03 03:04:22;;;;;;;;;;;;;;;16.61;72.78;102295.75;1020816;29;1076;-69
2022/10/03 03:05:13;;;;;;;;;;;;;;;16.61;73.15;102298.44;1020851;29;596;-69
2022/10/03 03:06:03;;;;;;;;;;;;;;;16.60;73.76;102299.41;1020933;29;705;-69
2022/10/03 03:06:54;;;;;;;;;;;;;;;16.63;72.46;102304.63;1020784;29;588;-69
2022/10/03 03:07:44;;;;;;;;;;;;;;;16.61;73.07;102296.59;1024008;29;619;-69
2022/10/03 03:08:35;;;;;;;;;;;;;;;16.64;73.50;102300.97;1024490;29;660;-69
2022/10/03 03:09:28;;;;;;;;;;;;;;;16.61;73.22;102296.59;1021002;29;646;-69
2022/10/03 03:10:18;;;;;;;;;;;;;;;16.61;72.68;102298.44;1020873;29;678;-69
2022/10/03 03:11:09;;;;;;;;;;;;;;;16.60;72.79;102304.78;1020471;29;757;-68
2022/10/03 03:12:00;;;;;;;;;;;;;;;16.60;72.72;102300.25;1020865;29;654;-69
2022/10/03 03:12:51;;;;;;;;;;;;;;;16.62;72.87;102308.25;1020754;29;678;-70
2022/10/03 03:13:41;;;;;;;;;;;;;;;16.63;72.63;102305.47;1020858;29;643;-70
2022/10/03 03:14:32;;;;;;;;;;;;;;;16.60;72.87;102311.03;1020808;29;686;-70
2022/10/03 03:15:23;;;;;;;;;;;;;;;16.60;73.30;102307.47;1020871;29;635;-69
2022/10/03 03:16:13;;;;;;;;;;;;;;;16.60;73.15;102312.84;1020819;29;726;-70
2022/10/03 03:17:04;;;;;;;;;;;;;;;16.57;72.90;102307.69;1020784;29;632;-70
2022/10/03 03:17:55;;;;;;;;;;;;;;;16.56;72.80;102305.94;1020784;29;677;-70
2022/10/03 03:18:46;;;;;;;;;;;;;;;16.58;72.92;102314.78;1021617;29;1944;-70
2022/10/03 03:19:36;;;;;;;;;;;;;;;16.58;73.22;102309.41;1021758;29;619;-70
2022/10/03 03:20:27;;;;;;;;;;;;;;;16.59;72.76;102309.31;1021717;29;619;-70
2022/10/03 03:21:17;;;;;;;;;;;;;;;16.55;72.71;102309.59;1021093;29;670;-70
2022/10/03 03:22:09;;;;;;;;;;;;;;;16.57;72.46;102313.06;1021665;29;660;-69
2022/10/03 03:23:00;;;;;;;;;;;;;;;16.55;72.69;102315.84;1021660;29;651;-69
2022/10/03 03:23:51;;;;;;;;;;;;;;;16.59;73.13;102316.50;1021670;29;710;-69
2022/10/03 03:24:41;;;;;;;;;;;;;;;16.59;72.90;102321.91;1021580;29;559;-69
2022/10/03 03:25:32;;;;;;;;;;;;;;;16.58;72.84;102312.97;1021111;29;638;-69
2022/10/03 03:26:22;;;;;;;;;;;;;;;16.56;73.05;102311.34;1021643;29;636;-69
2022/10/03 03:27:12;;;;;;;;;;;;;;;16.55;72.84;102309.59;1024826;29;647;-69
2022/10/03 03:28:03;;;;;;;;;;;;;;;16.54;72.27;102310.56;1023624;29;647;-69
2022/10/03 03:28:54;;;;;;;;;;;;;;;16.55;72.78;102309.59;1021825;29;674;-69
2022/10/03 03:29:44;;;;;;;;;;;;;;;16.53;73.21;102311.53;1021532;29;741;-69
2022/10/03 03:30:34;;;;;;;;;;;;;;;16.53;72.59;102319.59;1021132;29;670;-69
2022/10/03 03:31:25;;;;;;;;;;;;;;;16.54;73.13;102319.50;1021637;29;599;-69
2022/10/03 03:32:15;;;;;;;;;;;;;;;16.51;72.58;102310.75;1021115;29;698;-69
2022/10/03 03:33:06;;;;;;;;;;;;;;;16.52;72.22;102312.50;1021632;29;620;-69
2022/10/03 03:33:57;;;;;;;;;;;;;;;16.52;72.75;102323.25;1023409;29;623;-69
2022/10/03 03:34:48;;;;;;;;;;;;;;;16.51;72.76;102321.53;1025313;29;646;-69
2022/10/03 03:35:38;;;;;;;;;;;;;;;16.49;73.10;102316.25;1019908;29;647;-69
2022/10/03 03:36:29;;;;;;;;;;;;;;;16.55;72.87;102314.97;1021573;29;666;-70
2022/10/03 03:37:19;;;;;;;;;;;;;;;16.53;72.38;102319.59;1021571;29;690;-70
2022/10/03 03:38:10;;;;;;;;;;;;;;;16.52;72.62;102317.88;1021200;29;2011;-70
2022/10/03 03:39:01;;;;;;;;;;;;;;;16.50;72.54;102319.81;1020983;29;619;-70
2022/10/03 03:39:51;;;;;;;;;;;;;;;16.48;72.36;102317.22;1021105;29;678;-70
2022/10/03 03:40:42;;;;;;;;;;;;;;;16.47;73.08;102314.66;1021574;29;685;-70
2022/10/03 03:41:32;;;;;;;;;;;;;;;16.49;73.03;102320.75;1021564;29;647;-70
2022/10/03 03:42:23;;;;;;;;;;;;;;;16.53;72.60;102314.22;1021595;29;609;-70
2022/10/03 03:43:14;;;;;;;;;;;;;;;16.51;72.62;102317.00;1020976;29;730;-69
2022/10/03 03:44:05;;;;;;;;;;;;;;;16.54;72.75;102313.25;1021558;29;614;-70
2022/10/03 03:44:55;;;;;;;;;;;;;;;16.50;72.93;102311.72;1021672;29;674;-70
2022/10/03 03:45:46;;;;;;;;;;;;;;;16.47;72.72;102311.97;1020960;29;687;-70
2022/10/03 03:46:37;;;;;;;;;;;;;;;16.47;72.96;102317.34;1020953;29;627;-69
2022/10/03 03:47:28;;;;;;;;;;;;;;;16.44;73.11;102314.84;1021037;29;648;-70
2022/10/03 03:48:20;;;;;;;;;;;;;;;16.43;72.56;102307.75;1020891;29;624;-69
2022/10/03 03:49:10;;;;;;;;;;;;;;;16.46;73.29;102318.31;1021125;29;717;-69
2022/10/03 03:50:01;;;;;;;;;;;;;;;16.49;72.34;102315.38;1020959;29;624;-70
2022/10/03 03:50:55;;;;;;;;;;;;;;;16.49;72.89;102315.38;1020549;29;643;-69
2022/10/03 03:51:46;;;;;;;;;;;;;;;16.49;72.96;102316.25;1020962;29;665;-70
2022/10/03 03:52:36;;;;;;;;;;;;;;;16.45;72.43;102311.19;1020952;29;643;-70
2022/10/03 03:53:27;;;;;;;;;;;;;;;16.47;73.00;102311.97;1020862;29;689;-71
2022/10/03 03:54:18;;;;;;;;;;;;;;;16.49;72.88;102308.19;1024038;29;730;-70
2022/10/03 03:55:08;;;;;;;;;;;;;;;16.49;72.50;102302.78;1024167;29;1456;-71
2022/10/03 03:55:59;;;;;;;;;;;;;;;16.44;72.51;102304.94;1020701;29;728;-70
2022/10/03 03:56:49;;;;;;;;;;;;;;;16.47;72.85;102303.88;1021076;29;725;-70
2022/10/03 03:57:40;;;;;;;;;;;;;;;16.43;72.92;102307.75;1021551;29;919;-70
2022/10/03 03:58:32;;;;;;;;;;;;;;;16.45;72.72;102303.13;1021469;29;1980;-70
2022/10/03 03:59:22;;;;;;;;;;;;;;;16.44;72.70;102312.16;1019806;29;710;-70
2022/10/03 04:00:13;;;;;;;;;;;;;;;16.48;72.61;102316.38;1017001;29;662;-70
2022/10/03 04:01:03;;;;;;;;;;;;;;;16.44;72.74;102310.34;1017005;29;624;-70
2022/10/03 04:01:53;;;;;;;;;;;;;;;16.42;73.23;102312.25;1017102;29;607;-70
2022/10/03 04:02:44;;;;;;;;;;;;;;;16.44;73.08;102304.09;1016925;29;741;-70
2022/10/03 04:03:34;;;;;;;;;;;;;;;16.47;72.87;102304.75;1016961;29;648;-70
2022/10/03 04:04:25;;;;;;;;;;;;;;;16.47;72.88;102314.66;1017701;29;725;-70
2022/10/03 04:05:15;;;;;;;;;;;;;;;16.42;72.58;102304.19;1017185;29;635;-70
2022/10/03 04:06:05;;;;;;;;;;;;;;;16.44;72.59;102304.09;1017691;29;663;-70
2022/10/03 04:06:56;;;;;;;;;;;;;;;16.41;73.02;102312.34;1018091;29;893;-70
2022/10/03 04:07:48;;;;;;;;;;;;;;;16.43;72.65;102313.13;1017118;29;651;-70
2022/10/03 04:08:39;;;;;;;;;;;;;;;16.45;72.40;102303.13;1016882;29;792;-70
2022/10/03 04:09:29;;;;;;;;;;;;;;;16.42;72.49;102311.41;1017027;29;539;-70
2022/10/03 04:10:20;;;;;;;;;;;;;;;16.41;72.59;102312.34;1017085;29;643;-70
2022/10/03 04:11:11;;;;;;;;;;;;;;;16.44;72.68;102307.63;1018134;29;701;-69
2022/10/03 04:12:06;;;;;;;;;;;;;;;16.46;72.35;102313.78;1018201;29;699;-69
2022/10/03 04:12:56;;;;;;;;;;;;;;;16.47;72.29;102314.66;1017009;29;1012;-69
2022/10/03 04:13:47;;;;;;;;;;;;;;;16.41;72.38;102310.53;1017164;29;671;-69
2022/10/03 04:14:37;;;;;;;;;;;;;;;16.42;72.29;102311.41;1017008;29;703;-69
2022/10/03 04:15:27;;;;;;;;;;;;;;;16.42;72.70;102309.56;1017813;29;749;-69
2022/10/03 04:18:56;;;;;;;;;;;;;;;16.40;72.78;102307.94;1017915;29;698;-69
2022/10/03 04:19:47;;;;;;;;;;;;;;;16.40;72.62;102321.38;1017112;29;628;-69
2022/10/03 04:20:37;;;;;;;;;;;;;;;16.39;72.22;102320.53;1017133;29;694;-69
2022/10/03 04:21:28;;;;;;;;;;;;;;;16.40;72.71;102316.88;1017013;29;644;-69
2022/10/03 04:22:18;;;;;;;;;;;;;;;16.42;72.87;102319.47;1017096;29;647;-69
2022/10/03 04:23:09;;;;;;;;;;;;;;;16.41;72.18;102318.59;1017121;29;533;-69
2022/10/03 04:23:59;;;;;;;;;;;;;;;16.43;72.03;102313.97;1017029;29;646;-69
2022/10/03 04:24:53;;;;;;;;;;;;;;;16.43;72.58;102315.81;1017129;29;682;-69
2022/10/03 04:25:43;;;;;;;;;;;;;;;16.36;72.39;102318.03;1016916;29;672;-69
2022/10/03 04:26:33;;;;;;;;;;;;;;;16.37;72.52;102319.75;1018114;29;670;-68
2022/10/03 04:27:24;;;;;;;;;;;;;;;16.37;72.68;102316.22;1016959;29;647;-68
2022/10/03 04:28:14;;;;;;;;;;;;;;;16.39;72.22;102322.34;1017063;29;647;-68
2022/10/03 04:29:05;;;;;;;;;;;;;;;16.37;72.58;102322.44;1017879;29;698;-68
2022/10/03 04:29:56;;;;;;;;;;;;;;;16.38;72.53;102331.38;1016981;29;706;-68
2022/10/03 04:30:46;;;;;;;;;;;;;;;16.38;72.25;102326.88;1017586;29;722;-69
2022/10/03 04:31:40;;;;;;;;;;;;;;;16.37;72.32;102324.28;1018025;29;650;-69